sensor_id;sensor_type;location;lat;lon;timestamp;temperature;humidity
59148;DHT22;44930;52.878;6.168;2024-03-08T00:01:40;2.50;99.90
59148;DHT22;44930;52.878;6.168;2024-03-08T00:06:33;2.50;99.90
59148;DHT22;44930;52.878;6.168;2024-03-08T00:08:59;2.50;99.90
59148;DHT22;44930;52.878;6.168;2024-03-08T00:11:25;2.50;99.90
59148;DHT22;44930;52.878;6.168;2024-03-08T00:13:52;2.60;99.90
59148;DHT22;44930;52.878;6.168;2024-03-08T00:16:18;2.50;99.90
59148;DHT22;44930;52.878;6.168;2024-03-08T00:18:48;2.40;99.90
59148;DHT22;44930;52.878;6.168;2024-03-08T00:21:14;2.40;99.90
59148;DHT22;44930;52.878;6.168;2024-03-08T00:26:07;2.50;99.90
59148;DHT22;44930;52.878;6.168;2024-03-08T00:28:32;2.40;99.90
59148;DHT22;44930;52.878;6.168;2024-03-08T00:31:00;2.40;99.90
59148;DHT22;44930;52.878;6.168;2024-03-08T00:35:56;2.40;99.90
59148;DHT22;44930;52.878;6.168;2024-03-08T00:38:21;2.30;99.90
59148;DHT22;44930;52.878;6.168;2024-03-08T00:40:47;2.40;99.90
59148;DHT22;44930;52.878;6.168;2024-03-08T00:43:13;2.40;99.90
59148;DHT22;44930;52.878;6.168;2024-03-08T00:45:38;2.30;99.90
59148;DHT22;44930;52.878;6.168;2024-03-08T00:50:33;2.20;99.90
59148;DHT22;44930;52.878;6.168;2024-03-08T00:52:59;2.30;99.90
59148;DHT22;44930;52.878;6.168;2024-03-08T00:57:51;2.10;99.90
59148;DHT22;44930;52.878;6.168;2024-03-08T01:00:19;2.10;99.90
59148;DHT22;44930;52.878;6.168;2024-03-08T01:02:45;2.20;99.90
59148;DHT22;44930;52.878;6.168;2024-03-08T01:05:11;2.10;99.90
59148;DHT22;44930;52.878;6.168;2024-03-08T01:10:03;2.10;99.90
59148;DHT22;44930;52.878;6.168;2024-03-08T01:12:29;2.00;99.90
59148;DHT22;44930;52.878;6.168;2024-03-08T01:17:22;1.90;99.90
59148;DHT22;44930;52.878;6.168;2024-03-08T01:19:47;1.80;99.90
59148;DHT22;44930;52.878;6.168;2024-03-08T01:22:13;1.90;99.90
59148;DHT22;44930;52.878;6.168;2024-03-08T01:24:39;1.80;99.90
59148;DHT22;44930;52.878;6.168;2024-03-08T01:31:57;1.80;99.90
59148;DHT22;44930;52.878;6.168;2024-03-08T01:41:48;1.80;99.90
59148;DHT22;44930;52.878;6.168;2024-03-08T01:44:13;1.80;99.90
59148;DHT22;44930;52.878;6.168;2024-03-08T01:46:44;1.70;99.90
59148;DHT22;44930;52.878;6.168;2024-03-08T01:49:11;1.90;99.90
59148;DHT22;44930;52.878;6.168;2024-03-08T01:51:39;1.70;99.90
59148;DHT22;44930;52.878;6.168;2024-03-08T01:54:06;1.40;99.90
59148;DHT22;44930;52.878;6.168;2024-03-08T01:56:32;1.60;99.90
59148;DHT22;44930;52.878;6.168;2024-03-08T02:06:17;1.60;99.90
59148;DHT22;44930;52.878;6.168;2024-03-08T02:08:43;1.60;99.90
59148;DHT22;44930;52.878;6.168;2024-03-08T02:13:36;1.70;99.90
59148;DHT22;44930;52.878;6.168;2024-03-08T02:18:29;1.60;99.90
59148;DHT22;44930;52.878;6.168;2024-03-08T02:20:59;1.50;99.90
59148;DHT22;44930;52.878;6.168;2024-03-08T02:23:25;1.50;99.90
59148;DHT22;44930;52.878;6.168;2024-03-08T02:25:52;1.60;99.90
59148;DHT22;44930;52.878;6.168;2024-03-08T02:33:15;1.50;99.90
59148;DHT22;44930;52.878;6.168;2024-03-08T02:38:18;1.40;99.90
59148;DHT22;44930;52.878;6.168;2024-03-08T02:40:51;1.60;99.90
59148;DHT22;44930;52.878;6.168;2024-03-08T02:43:18;1.40;99.90
59148;DHT22;44930;52.878;6.168;2024-03-08T02:48:14;1.40;99.90
59148;DHT22;44930;52.878;6.168;2024-03-08T02:50:40;1.50;99.90
59148;DHT22;44930;52.878;6.168;2024-03-08T02:53:08;1.40;99.90
59148;DHT22;44930;52.878;6.168;2024-03-08T02:55:33;1.50;99.90
59148;DHT22;44930;52.878;6.168;2024-03-08T03:02:56;1.50;99.90
59148;DHT22;44930;52.878;6.168;2024-03-08T03:05:23;1.50;99.90
59148;DHT22;44930;52.878;6.168;2024-03-08T03:20:08;1.30;99.90
59148;DHT22;44930;52.878;6.168;2024-03-08T03:22:39;1.60;99.90
59148;DHT22;44930;52.878;6.168;2024-03-08T03:29:58;1.50;99.90
59148;DHT22;44930;52.878;6.168;2024-03-08T03:32:44;1.50;99.90
59148;DHT22;44930;52.878;6.168;2024-03-08T03:37:38;1.50;99.90
59148;DHT22;44930;52.878;6.168;2024-03-08T03:42:33;1.50;99.90
59148;DHT22;44930;52.878;6.168;2024-03-08T03:49:52;1.50;99.90
59148;DHT22;44930;52.878;6.168;2024-03-08T04:11:49;1.40;99.90
59148;DHT22;44930;52.878;6.168;2024-03-08T04:16:44;1.50;99.90
59148;DHT22;44930;52.878;6.168;2024-03-08T04:26:28;1.40;99.90
59148;DHT22;44930;52.878;6.168;2024-03-08T04:28:53;1.40;99.90
59148;DHT22;44930;52.878;6.168;2024-03-08T04:31:19;1.40;99.90
59148;DHT22;44930;52.878;6.168;2024-03-08T04:36:10;1.30;99.90
59148;DHT22;44930;52.878;6.168;2024-03-08T04:43:33;1.30;99.90
59148;DHT22;44930;52.878;6.168;2024-03-08T04:58:11;1.20;99.90
59148;DHT22;44930;52.878;6.168;2024-03-08T05:03:03;1.10;99.90
59148;DHT22;44930;52.878;6.168;2024-03-08T05:24:59;1.10;99.90
59148;DHT22;44930;52.878;6.168;2024-03-08T05:27:26;1.10;99.90
59148;DHT22;44930;52.878;6.168;2024-03-08T05:37:10;0.90;99.90
59148;DHT22;44930;52.878;6.168;2024-03-08T05:42:02;1.00;99.90
59148;DHT22;44930;52.878;6.168;2024-03-08T05:54:13;0.80;99.90
59148;DHT22;44930;52.878;6.168;2024-03-08T05:56:40;0.90;99.90
59148;DHT22;44930;52.878;6.168;2024-03-08T06:01:35;0.90;99.90
59148;DHT22;44930;52.878;6.168;2024-03-08T06:04:03;1.10;99.90
59148;DHT22;44930;52.878;6.168;2024-03-08T06:21:20;0.90;99.90
59148;DHT22;44930;52.878;6.168;2024-03-08T06:38:26;1.00;99.90
59148;DHT22;44930;52.878;6.168;2024-03-08T06:43:20;1.00;99.90
59148;DHT22;44930;52.878;6.168;2024-03-08T06:48:19;1.00;99.90
59148;DHT22;44930;52.878;6.168;2024-03-08T06:50:46;1.10;99.90
59148;DHT22;44930;52.878;6.168;2024-03-08T07:00:32;1.30;99.90
59148;DHT22;44930;52.878;6.168;2024-03-08T07:05:28;1.40;99.90
59148;DHT22;44930;52.878;6.168;2024-03-08T07:07:54;1.20;99.90
59148;DHT22;44930;52.878;6.168;2024-03-08T07:10:21;1.60;99.90
59148;DHT22;44930;52.878;6.168;2024-03-08T07:12:49;1.50;99.90
59148;DHT22;44930;52.878;6.168;2024-03-08T07:15:15;1.50;99.90
59148;DHT22;44930;52.878;6.168;2024-03-08T07:22:38;1.70;99.90
59148;DHT22;44930;52.878;6.168;2024-03-08T07:25:06;1.80;99.90
59148;DHT22;44930;52.878;6.168;2024-03-08T07:27:35;1.80;99.90
59148;DHT22;44930;52.878;6.168;2024-03-08T07:32:28;2.00;99.90
59148;DHT22;44930;52.878;6.168;2024-03-08T07:37:21;2.00;99.90
59148;DHT22;44930;52.878;6.168;2024-03-08T07:42:13;2.30;99.90
59148;DHT22;44930;52.878;6.168;2024-03-08T07:47:05;2.20;99.90
59148;DHT22;44930;52.878;6.168;2024-03-08T07:49:37;2.30;99.90
59148;DHT22;44930;52.878;6.168;2024-03-08T07:52:04;2.30;99.90
59148;DHT22;44930;52.878;6.168;2024-03-08T07:56:56;2.40;99.90
59148;DHT22;44930;52.878;6.168;2024-03-08T07:59:22;2.50;99.90
59148;DHT22;44930;52.878;6.168;2024-03-08T08:11:47;3.00;99.90
59148;DHT22;44930;52.878;6.168;2024-03-08T08:14:13;3.00;99.90
59148;DHT22;44930;52.878;6.168;2024-03-08T08:16:39;3.10;99.90
59148;DHT22;44930;52.878;6.168;2024-03-08T08:19:08;3.20;99.90
59148;DHT22;44930;52.878;6.168;2024-03-08T08:21:34;3.20;99.90
59148;DHT22;44930;52.878;6.168;2024-03-08T08:24:03;3.20;99.90
59148;DHT22;44930;52.878;6.168;2024-03-08T08:26:29;3.30;99.90
59148;DHT22;44930;52.878;6.168;2024-03-08T08:28:54;3.50;99.90
59148;DHT22;44930;52.878;6.168;2024-03-08T08:31:20;3.50;99.90
59148;DHT22;44930;52.878;6.168;2024-03-08T08:33:45;3.50;99.90
59148;DHT22;44930;52.878;6.168;2024-03-08T08:36:13;3.50;99.90
59148;DHT22;44930;52.878;6.168;2024-03-08T08:38:39;3.60;99.90
59148;DHT22;44930;52.878;6.168;2024-03-08T08:41:05;3.70;99.90
59148;DHT22;44930;52.878;6.168;2024-03-08T08:43:31;3.70;99.90
59148;DHT22;44930;52.878;6.168;2024-03-08T08:45:59;3.70;99.90
59148;DHT22;44930;52.878;6.168;2024-03-08T08:48:24;3.90;99.90
59148;DHT22;44930;52.878;6.168;2024-03-08T08:50:50;3.90;99.90
59148;DHT22;44930;52.878;6.168;2024-03-08T08:53:17;4.00;99.90
59148;DHT22;44930;52.878;6.168;2024-03-08T08:55:44;4.10;99.90
59148;DHT22;44930;52.878;6.168;2024-03-08T08:58:11;4.10;99.90
59148;DHT22;44930;52.878;6.168;2024-03-08T09:00:37;4.20;99.90
59148;DHT22;44930;52.878;6.168;2024-03-08T09:03:03;4.30;99.90
59148;DHT22;44930;52.878;6.168;2024-03-08T09:05:28;4.40;99.90
59148;DHT22;44930;52.878;6.168;2024-03-08T09:07:54;4.50;99.90
59148;DHT22;44930;52.878;6.168;2024-03-08T09:10:20;4.60;99.90
59148;DHT22;44930;52.878;6.168;2024-03-08T09:12:47;4.60;99.90
59148;DHT22;44930;52.878;6.168;2024-03-08T09:15:13;4.50;99.90
59148;DHT22;44930;52.878;6.168;2024-03-08T09:17:39;4.60;99.90
59148;DHT22;44930;52.878;6.168;2024-03-08T09:20:07;4.70;99.90
59148;DHT22;44930;52.878;6.168;2024-03-08T09:22:34;4.90;99.90
59148;DHT22;44930;52.878;6.168;2024-03-08T09:27:27;4.90;99.90
59148;DHT22;44930;52.878;6.168;2024-03-08T09:29:52;4.90;99.90
59148;DHT22;44930;52.878;6.168;2024-03-08T09:32:18;4.90;99.90
59148;DHT22;44930;52.878;6.168;2024-03-08T09:34:44;5.20;99.90
59148;DHT22;44930;52.878;6.168;2024-03-08T09:37:09;5.00;99.90
59148;DHT22;44930;52.878;6.168;2024-03-08T09:39:35;5.00;99.90
59148;DHT22;44930;52.878;6.168;2024-03-08T09:42:01;5.20;99.90
59148;DHT22;44930;52.878;6.168;2024-03-08T09:44:27;5.20;99.90
59148;DHT22;44930;52.878;6.168;2024-03-08T09:49:21;5.20;99.90
59148;DHT22;44930;52.878;6.168;2024-03-08T09:51:46;5.20;99.90
59148;DHT22;44930;52.878;6.168;2024-03-08T09:56:39;5.40;99.90
59148;DHT22;44930;52.878;6.168;2024-03-08T09:59:07;5.40;99.90
59148;DHT22;44930;52.878;6.168;2024-03-08T10:01:35;5.40;99.90
59148;DHT22;44930;52.878;6.168;2024-03-08T10:04:02;5.50;99.90
59148;DHT22;44930;52.878;6.168;2024-03-08T10:06:27;5.40;99.90
59148;DHT22;44930;52.878;6.168;2024-03-08T10:08:53;5.50;99.90
59148;DHT22;44930;52.878;6.168;2024-03-08T10:11:19;5.20;99.90
59148;DHT22;44930;52.878;6.168;2024-03-08T10:13:47;5.60;99.90
59148;DHT22;44930;52.878;6.168;2024-03-08T10:16:13;5.50;99.90
59148;DHT22;44930;52.878;6.168;2024-03-08T10:18:38;5.70;99.90
59148;DHT22;44930;52.878;6.168;2024-03-08T10:23:31;5.70;99.90
59148;DHT22;44930;52.878;6.168;2024-03-08T10:25:57;5.80;99.90
59148;DHT22;44930;52.878;6.168;2024-03-08T10:28:24;5.80;99.90
59148;DHT22;44930;52.878;6.168;2024-03-08T10:30:50;5.80;99.90
59148;DHT22;44930;52.878;6.168;2024-03-08T10:33:16;5.90;99.90
59148;DHT22;44930;52.878;6.168;2024-03-08T10:35:41;5.90;99.90
59148;DHT22;44930;52.878;6.168;2024-03-08T10:38:09;6.00;99.90
59148;DHT22;44930;52.878;6.168;2024-03-08T10:40:39;6.10;99.90
59148;DHT22;44930;52.878;6.168;2024-03-08T10:45:37;6.10;99.90
59148;DHT22;44930;52.878;6.168;2024-03-08T10:48:28;6.20;99.90
59148;DHT22;44930;52.878;6.168;2024-03-08T10:51:02;6.30;99.90
59148;DHT22;44930;52.878;6.168;2024-03-08T10:53:28;6.30;99.90
59148;DHT22;44930;52.878;6.168;2024-03-08T10:55:57;6.50;99.90
59148;DHT22;44930;52.878;6.168;2024-03-08T10:58:26;6.30;99.90
59148;DHT22;44930;52.878;6.168;2024-03-08T11:00:55;6.50;99.90
59148;DHT22;44930;52.878;6.168;2024-03-08T11:08:36;6.80;99.90
59148;DHT22;44930;52.878;6.168;2024-03-08T11:11:02;6.80;99.90
59148;DHT22;44930;52.878;6.168;2024-03-08T11:13:39;6.90;99.90
59148;DHT22;44930;52.878;6.168;2024-03-08T11:16:09;7.10;99.90
59148;DHT22;44930;52.878;6.168;2024-03-08T11:21:08;7.20;99.90
59148;DHT22;44930;52.878;6.168;2024-03-08T11:23:38;7.20;99.90
59148;DHT22;44930;52.878;6.168;2024-03-08T11:26:20;7.20;99.90
59148;DHT22;44930;52.878;6.168;2024-03-08T11:28:46;7.40;99.90
59148;DHT22;44930;52.878;6.168;2024-03-08T11:33:40;7.40;99.90
59148;DHT22;44930;52.878;6.168;2024-03-08T11:36:11;7.40;99.90
59148;DHT22;44930;52.878;6.168;2024-03-08T11:38:43;7.50;99.90
59148;DHT22;44930;52.878;6.168;2024-03-08T11:41:20;7.60;99.90
59148;DHT22;44930;52.878;6.168;2024-03-08T11:43:47;7.70;99.90
59148;DHT22;44930;52.878;6.168;2024-03-08T11:46:14;7.70;99.90
59148;DHT22;44930;52.878;6.168;2024-03-08T11:48:41;7.80;99.90
59148;DHT22;44930;52.878;6.168;2024-03-08T11:51:08;7.90;99.90
59148;DHT22;44930;52.878;6.168;2024-03-08T11:53:34;7.90;99.90
59148;DHT22;44930;52.878;6.168;2024-03-08T11:56:08;7.50;99.90
59148;DHT22;44930;52.878;6.168;2024-03-08T12:01:05;8.10;99.90
59148;DHT22;44930;52.878;6.168;2024-03-08T12:03:41;8.20;99.90
59148;DHT22;44930;52.878;6.168;2024-03-08T12:11:04;8.20;99.90
59148;DHT22;44930;52.878;6.168;2024-03-08T12:13:32;8.40;99.90
59148;DHT22;44930;52.878;6.168;2024-03-08T12:15:58;8.30;99.90
59148;DHT22;44930;52.878;6.168;2024-03-08T12:21:11;8.40;99.90
59148;DHT22;44930;52.878;6.168;2024-03-08T12:23:38;8.60;99.90
59148;DHT22;44930;52.878;6.168;2024-03-08T12:26:12;8.80;99.90
59148;DHT22;44930;52.878;6.168;2024-03-08T12:28:42;8.70;99.90
59148;DHT22;44930;52.878;6.168;2024-03-08T12:31:13;8.70;99.90
59148;DHT22;44930;52.878;6.168;2024-03-08T12:33:53;8.50;99.90
59148;DHT22;44930;52.878;6.168;2024-03-08T12:36:19;8.70;99.90
59148;DHT22;44930;52.878;6.168;2024-03-08T12:38:46;9.20;99.90
59148;DHT22;44930;52.878;6.168;2024-03-08T12:41:19;8.80;99.90
59148;DHT22;44930;52.878;6.168;2024-03-08T12:43:45;8.90;99.90
59148;DHT22;44930;52.878;6.168;2024-03-08T12:46:18;8.90;99.90
59148;DHT22;44930;52.878;6.168;2024-03-08T12:48:48;9.30;99.90
59148;DHT22;44930;52.878;6.168;2024-03-08T12:51:14;9.10;99.90
59148;DHT22;44930;52.878;6.168;2024-03-08T12:53:42;9.10;99.90
59148;DHT22;44930;52.878;6.168;2024-03-08T12:56:10;9.00;99.90
59148;DHT22;44930;52.878;6.168;2024-03-08T12:58:36;9.00;99.90
59148;DHT22;44930;52.878;6.168;2024-03-08T13:01:05;9.20;99.90
59148;DHT22;44930;52.878;6.168;2024-03-08T13:03:33;9.10;99.90
59148;DHT22;44930;52.878;6.168;2024-03-08T13:06:04;9.30;99.90
59148;DHT22;44930;52.878;6.168;2024-03-08T13:08:35;9.20;99.90
59148;DHT22;44930;52.878;6.168;2024-03-08T13:11:01;9.20;99.90
59148;DHT22;44930;52.878;6.168;2024-03-08T13:13:29;9.20;99.90
59148;DHT22;44930;52.878;6.168;2024-03-08T13:18:22;9.40;99.90
59148;DHT22;44930;52.878;6.168;2024-03-08T13:20:48;9.40;99.90
59148;DHT22;44930;52.878;6.168;2024-03-08T13:23:17;9.50;99.90
59148;DHT22;44930;52.878;6.168;2024-03-08T13:25:43;9.40;99.90
59148;DHT22;44930;52.878;6.168;2024-03-08T13:28:09;9.40;99.90
59148;DHT22;44930;52.878;6.168;2024-03-08T13:30:36;9.40;99.90
59148;DHT22;44930;52.878;6.168;2024-03-08T13:33:02;9.30;99.90
59148;DHT22;44930;52.878;6.168;2024-03-08T13:35:33;9.30;99.90
59148;DHT22;44930;52.878;6.168;2024-03-08T13:38:00;9.40;99.90
59148;DHT22;44930;52.878;6.168;2024-03-08T13:40:28;9.50;99.90
59148;DHT22;44930;52.878;6.168;2024-03-08T13:42:54;9.70;99.90
59148;DHT22;44930;52.878;6.168;2024-03-08T13:45:19;9.80;99.90
59148;DHT22;44930;52.878;6.168;2024-03-08T13:50:17;10.00;99.90
59148;DHT22;44930;52.878;6.168;2024-03-08T13:52:47;10.00;99.90
59148;DHT22;44930;52.878;6.168;2024-03-08T13:55:20;10.10;99.90
59148;DHT22;44930;52.878;6.168;2024-03-08T13:57:48;9.90;99.90
59148;DHT22;44930;52.878;6.168;2024-03-08T14:00:14;9.90;99.90
59148;DHT22;44930;52.878;6.168;2024-03-08T14:02:40;9.90;99.90
59148;DHT22;44930;52.878;6.168;2024-03-08T14:05:09;10.10;99.90
59148;DHT22;44930;52.878;6.168;2024-03-08T14:07:37;10.00;99.90
59148;DHT22;44930;52.878;6.168;2024-03-08T14:10:03;10.10;99.90
59148;DHT22;44930;52.878;6.168;2024-03-08T14:12:29;10.10;99.90
59148;DHT22;44930;52.878;6.168;2024-03-08T14:14:55;10.10;99.90
59148;DHT22;44930;52.878;6.168;2024-03-08T14:17:25;10.40;99.90
59148;DHT22;44930;52.878;6.168;2024-03-08T14:19:52;10.20;99.90
59148;DHT22;44930;52.878;6.168;2024-03-08T14:22:18;10.20;99.90
59148;DHT22;44930;52.878;6.168;2024-03-08T14:24:44;10.30;99.90
59148;DHT22;44930;52.878;6.168;2024-03-08T14:27:10;10.30;99.90
59148;DHT22;44930;52.878;6.168;2024-03-08T14:29:37;10.30;99.90
59148;DHT22;44930;52.878;6.168;2024-03-08T14:32:05;10.00;99.90
59148;DHT22;44930;52.878;6.168;2024-03-08T14:34:32;10.30;99.90
59148;DHT22;44930;52.878;6.168;2024-03-08T14:37:00;10.20;99.90
59148;DHT22;44930;52.878;6.168;2024-03-08T14:39:26;10.20;99.90
59148;DHT22;44930;52.878;6.168;2024-03-08T14:44:22;10.10;99.90
59148;DHT22;44930;52.878;6.168;2024-03-08T14:49:26;10.30;99.90
59148;DHT22;44930;52.878;6.168;2024-03-08T14:51:55;10.20;99.90
59148;DHT22;44930;52.878;6.168;2024-03-08T14:54:20;10.20;99.90
59148;DHT22;44930;52.878;6.168;2024-03-08T14:56:49;10.20;99.90
59148;DHT22;44930;52.878;6.168;2024-03-08T15:01:42;10.10;99.90
59148;DHT22;44930;52.878;6.168;2024-03-08T15:04:09;9.90;99.90
59148;DHT22;44930;52.878;6.168;2024-03-08T15:06:38;10.10;99.90
59148;DHT22;44930;52.878;6.168;2024-03-08T15:09:07;10.10;99.90
59148;DHT22;44930;52.878;6.168;2024-03-08T15:11:40;10.10;99.90
59148;DHT22;44930;52.878;6.168;2024-03-08T15:14:08;9.90;99.90
59148;DHT22;44930;52.878;6.168;2024-03-08T15:16:40;9.90;99.90
59148;DHT22;44930;52.878;6.168;2024-03-08T15:19:06;10.00;99.90
59148;DHT22;44930;52.878;6.168;2024-03-08T15:21:32;10.00;99.90
59148;DHT22;44930;52.878;6.168;2024-03-08T15:23:59;10.00;99.90
59148;DHT22;44930;52.878;6.168;2024-03-08T15:26:25;9.90;99.90
59148;DHT22;44930;52.878;6.168;2024-03-08T15:28:51;9.90;99.90
59148;DHT22;44930;52.878;6.168;2024-03-08T15:31:17;9.90;99.90
59148;DHT22;44930;52.878;6.168;2024-03-08T15:33:46;10.00;99.90
59148;DHT22;44930;52.878;6.168;2024-03-08T15:36:17;10.10;99.90
59148;DHT22;44930;52.878;6.168;2024-03-08T15:38:42;10.10;99.90
59148;DHT22;44930;52.878;6.168;2024-03-08T15:41:14;10.50;99.90
59148;DHT22;44930;52.878;6.168;2024-03-08T15:43:40;10.70;99.90
59148;DHT22;44930;52.878;6.168;2024-03-08T15:46:07;11.10;99.90
59148;DHT22;44930;52.878;6.168;2024-03-08T15:48:33;11.20;99.90
59148;DHT22;44930;52.878;6.168;2024-03-08T15:51:04;11.20;99.90
59148;DHT22;44930;52.878;6.168;2024-03-08T15:53:33;11.40;99.90
59148;DHT22;44930;52.878;6.168;2024-03-08T15:56:00;11.40;99.90
59148;DHT22;44930;52.878;6.168;2024-03-08T15:58:28;11.30;99.90
59148;DHT22;44930;52.878;6.168;2024-03-08T16:00:55;11.50;99.90
59148;DHT22;44930;52.878;6.168;2024-03-08T16:03:22;10.90;99.90
59148;DHT22;44930;52.878;6.168;2024-03-08T16:05:48;10.70;99.90
59148;DHT22;44930;52.878;6.168;2024-03-08T16:08:18;10.30;99.90
59148;DHT22;44930;52.878;6.168;2024-03-08T16:13:16;9.80;99.90
59148;DHT22;44930;52.878;6.168;2024-03-08T16:15:46;9.70;99.90
59148;DHT22;44930;52.878;6.168;2024-03-08T16:18:12;9.40;99.90
59148;DHT22;44930;52.878;6.168;2024-03-08T16:20:39;9.20;99.90
59148;DHT22;44930;52.878;6.168;2024-03-08T16:23:05;9.10;99.90
59148;DHT22;44930;52.878;6.168;2024-03-08T16:25:31;8.80;99.90
59148;DHT22;44930;52.878;6.168;2024-03-08T16:27:56;8.70;99.90
59148;DHT22;44930;52.878;6.168;2024-03-08T16:32:49;8.60;99.90
59148;DHT22;44930;52.878;6.168;2024-03-08T16:35:17;8.50;99.90
59148;DHT22;44930;52.878;6.168;2024-03-08T16:37:43;8.50;99.90
59148;DHT22;44930;52.878;6.168;2024-03-08T16:40:10;8.30;99.90
59148;DHT22;44930;52.878;6.168;2024-03-08T16:42:42;8.30;99.90
59148;DHT22;44930;52.878;6.168;2024-03-08T16:45:08;8.30;99.90
59148;DHT22;44930;52.878;6.168;2024-03-08T16:47:38;8.20;99.90
59148;DHT22;44930;52.878;6.168;2024-03-08T16:50:05;8.20;99.90
59148;DHT22;44930;52.878;6.168;2024-03-08T16:52:36;8.10;99.90
59148;DHT22;44930;52.878;6.168;2024-03-08T16:55:05;8.30;99.90
59148;DHT22;44930;52.878;6.168;2024-03-08T16:57:48;7.60;99.90
59148;DHT22;44930;52.878;6.168;2024-03-08T17:00:21;7.90;99.90
59148;DHT22;44930;52.878;6.168;2024-03-08T17:02:56;7.90;99.90
59148;DHT22;44930;52.878;6.168;2024-03-08T17:05:23;7.80;99.90
59148;DHT22;44930;52.878;6.168;2024-03-08T17:07:57;7.80;99.90
59148;DHT22;44930;52.878;6.168;2024-03-08T17:10:28;7.70;99.90
59148;DHT22;44930;52.878;6.168;2024-03-08T17:12:55;7.70;99.90
59148;DHT22;44930;52.878;6.168;2024-03-08T17:15:24;7.60;99.90
59148;DHT22;44930;52.878;6.168;2024-03-08T17:17:52;7.40;99.90
59148;DHT22;44930;52.878;6.168;2024-03-08T17:20:20;7.40;99.90
59148;DHT22;44930;52.878;6.168;2024-03-08T17:25:13;7.30;99.90
59148;DHT22;44930;52.878;6.168;2024-03-08T17:27:43;7.20;99.90
59148;DHT22;44930;52.878;6.168;2024-03-08T17:30:16;7.10;99.90
59148;DHT22;44930;52.878;6.168;2024-03-08T17:32:51;7.10;99.90
59148;DHT22;44930;52.878;6.168;2024-03-08T17:35:21;6.90;99.90
59148;DHT22;44930;52.878;6.168;2024-03-08T17:40:18;7.00;99.90
59148;DHT22;44930;52.878;6.168;2024-03-08T17:42:51;6.90;99.90
59148;DHT22;44930;52.878;6.168;2024-03-08T17:45:21;6.80;99.90
59148;DHT22;44930;52.878;6.168;2024-03-08T17:47:48;6.90;99.90
59148;DHT22;44930;52.878;6.168;2024-03-08T17:50:14;6.80;99.90
59148;DHT22;44930;52.878;6.168;2024-03-08T17:52:42;6.80;99.90
59148;DHT22;44930;52.878;6.168;2024-03-08T17:55:11;6.70;99.90
59148;DHT22;44930;52.878;6.168;2024-03-08T18:00:15;6.60;99.90
59148;DHT22;44930;52.878;6.168;2024-03-08T18:02:48;6.70;99.90
59148;DHT22;44930;52.878;6.168;2024-03-08T18:05:19;6.60;99.90
59148;DHT22;44930;52.878;6.168;2024-03-08T18:07:47;6.50;99.90
59148;DHT22;44930;52.878;6.168;2024-03-08T18:10:13;6.50;99.90
59148;DHT22;44930;52.878;6.168;2024-03-08T18:12:57;6.30;99.90
59148;DHT22;44930;52.878;6.168;2024-03-08T18:15:27;6.40;99.90
59148;DHT22;44930;52.878;6.168;2024-03-08T18:17:57;6.60;99.90
59148;DHT22;44930;52.878;6.168;2024-03-08T18:20:26;6.40;99.90
59148;DHT22;44930;52.878;6.168;2024-03-08T18:23:02;6.60;99.90
59148;DHT22;44930;52.878;6.168;2024-03-08T18:25:32;6.40;99.90
59148;DHT22;44930;52.878;6.168;2024-03-08T18:28:00;6.10;99.90
59148;DHT22;44930;52.878;6.168;2024-03-08T18:30:27;6.30;99.90
59148;DHT22;44930;52.878;6.168;2024-03-08T18:32:53;6.30;99.90
59148;DHT22;44930;52.878;6.168;2024-03-08T18:35:19;6.40;99.90
59148;DHT22;44930;52.878;6.168;2024-03-08T18:37:47;6.50;99.90
59148;DHT22;44930;52.878;6.168;2024-03-08T18:40:18;6.30;99.90
59148;DHT22;44930;52.878;6.168;2024-03-08T18:42:49;6.10;99.90
59148;DHT22;44930;52.878;6.168;2024-03-08T18:50:12;6.20;99.90
59148;DHT22;44930;52.878;6.168;2024-03-08T18:52:39;6.10;99.90
59148;DHT22;44930;52.878;6.168;2024-03-08T18:55:05;6.00;99.90
59148;DHT22;44930;52.878;6.168;2024-03-08T18:57:39;6.00;99.90
59148;DHT22;44930;52.878;6.168;2024-03-08T19:00:08;5.70;99.90
59148;DHT22;44930;52.878;6.168;2024-03-08T19:05:12;5.90;99.90
59148;DHT22;44930;52.878;6.168;2024-03-08T19:10:19;5.90;99.90
59148;DHT22;44930;52.878;6.168;2024-03-08T19:12:50;6.00;99.90
59148;DHT22;44930;52.878;6.168;2024-03-08T19:15:17;5.90;99.90
59148;DHT22;44930;52.878;6.168;2024-03-08T19:17:44;5.90;99.90
59148;DHT22;44930;52.878;6.168;2024-03-08T19:20:10;5.80;99.90
59148;DHT22;44930;52.878;6.168;2024-03-08T19:22:49;5.50;99.90
59148;DHT22;44930;52.878;6.168;2024-03-08T19:27:47;5.80;99.90
59148;DHT22;44930;52.878;6.168;2024-03-08T19:30:14;6.00;99.90
59148;DHT22;44930;52.878;6.168;2024-03-08T19:32:43;5.60;99.90
59148;DHT22;44930;52.878;6.168;2024-03-08T19:35:12;5.50;99.90
59148;DHT22;44930;52.878;6.168;2024-03-08T19:37:42;5.80;99.90
59148;DHT22;44930;52.878;6.168;2024-03-08T19:40:11;5.60;99.90
59148;DHT22;44930;52.878;6.168;2024-03-08T19:42:50;5.60;99.90
59148;DHT22;44930;52.878;6.168;2024-03-08T19:45:16;5.50;99.90
59148;DHT22;44930;52.878;6.168;2024-03-08T19:47:42;5.60;99.90
59148;DHT22;44930;52.878;6.168;2024-03-08T19:50:15;5.50;99.90
59148;DHT22;44930;52.878;6.168;2024-03-08T19:52:45;5.50;99.90
59148;DHT22;44930;52.878;6.168;2024-03-08T19:57:42;5.50;99.90
59148;DHT22;44930;52.878;6.168;2024-03-08T20:00:18;5.50;99.90
59148;DHT22;44930;52.878;6.168;2024-03-08T20:02:47;5.40;99.90
59148;DHT22;44930;52.878;6.168;2024-03-08T20:05:15;5.40;99.90
59148;DHT22;44930;52.878;6.168;2024-03-08T20:07:42;5.40;99.90
59148;DHT22;44930;52.878;6.168;2024-03-08T20:10:13;5.30;99.90
59148;DHT22;44930;52.878;6.168;2024-03-08T20:12:40;5.40;99.90
59148;DHT22;44930;52.878;6.168;2024-03-08T20:15:09;5.50;99.90
59148;DHT22;44930;52.878;6.168;2024-03-08T20:20:05;5.40;99.90
59148;DHT22;44930;52.878;6.168;2024-03-08T20:22:31;5.40;99.90
59148;DHT22;44930;52.878;6.168;2024-03-08T20:24:57;5.30;99.90
59148;DHT22;44930;52.878;6.168;2024-03-08T20:27:24;5.30;99.90
59148;DHT22;44930;52.878;6.168;2024-03-08T20:29:53;5.30;99.90
59148;DHT22;44930;52.878;6.168;2024-03-08T20:32:19;5.30;99.90
59148;DHT22;44930;52.878;6.168;2024-03-08T20:37:11;5.20;99.90
59148;DHT22;44930;52.878;6.168;2024-03-08T20:39:39;5.20;99.90
59148;DHT22;44930;52.878;6.168;2024-03-08T20:42:04;5.20;99.90
59148;DHT22;44930;52.878;6.168;2024-03-08T20:44:31;5.20;99.90
59148;DHT22;44930;52.878;6.168;2024-03-08T20:46:59;5.10;99.90
59148;DHT22;44930;52.878;6.168;2024-03-08T20:49:26;5.40;99.90
59148;DHT22;44930;52.878;6.168;2024-03-08T20:51:51;5.20;99.90
59148;DHT22;44930;52.878;6.168;2024-03-08T20:54:17;5.10;99.90
59148;DHT22;44930;52.878;6.168;2024-03-08T20:56:42;5.20;99.90
59148;DHT22;44930;52.878;6.168;2024-03-08T20:59:08;5.20;99.90
59148;DHT22;44930;52.878;6.168;2024-03-08T21:01:36;5.10;99.90
59148;DHT22;44930;52.878;6.168;2024-03-08T21:04:02;5.10;99.90
59148;DHT22;44930;52.878;6.168;2024-03-08T21:06:29;5.10;99.90
59148;DHT22;44930;52.878;6.168;2024-03-08T21:08:55;5.20;99.90
59148;DHT22;44930;52.878;6.168;2024-03-08T21:11:22;5.00;99.90
59148;DHT22;44930;52.878;6.168;2024-03-08T21:13:48;4.80;99.90